Map

Track Data

SID SEASON NUMBER BASIN SUBBASIN NAME ISO_TIME NATURE LAT LON WMO_WIND WMO_PRES WMO_AGENCY TRACK_TYPE DIST2LAND LANDFALL IFLAG USA_AGENCY USA_ATCF_ID USA_LAT USA_LON USA_RECORD USA_STATUS USA_WIND USA_PRES USA_SSHS USA_R34_NE USA_R34_SE USA_R34_SW USA_R34_NW USA_R50_NE USA_R50_SE USA_R50_SW USA_R50_NW USA_R64_NE USA_R64_SE USA_R64_SW USA_R64_NW USA_POCI USA_ROCI USA_RMW USA_EYE TOKYO_LAT TOKYO_LON TOKYO_GRADE TOKYO_WIND TOKYO_PRES TOKYO_R50_DIR TOKYO_R50_LONG TOKYO_R50_SHORT TOKYO_R30_DIR TOKYO_R30_LONG TOKYO_R30_SHORT TOKYO_LAND CMA_LAT CMA_LON CMA_CAT CMA_WIND CMA_PRES HKO_LAT HKO_LON HKO_CAT HKO_WIND HKO_PRES NEWDELHI_LAT NEWDELHI_LON NEWDELHI_GRADE NEWDELHI_WIND NEWDELHI_PRES NEWDELHI_CI NEWDELHI_DP NEWDELHI_POCI REUNION_LAT REUNION_LON REUNION_TYPE REUNION_WIND REUNION_PRES REUNION_TNUM REUNION_CI REUNION_RMW REUNION_R34_NE REUNION_R34_SE REUNION_R34_SW REUNION_R34_NW REUNION_R50_NE REUNION_R50_SE REUNION_R50_SW REUNION_R50_NW REUNION_R64_NE REUNION_R64_SE REUNION_R64_SW REUNION_R64_NW BOM_LAT BOM_LON BOM_TYPE BOM_WIND BOM_PRES BOM_TNUM BOM_CI BOM_RMW BOM_R34_NE BOM_R34_SE BOM_R34_SW BOM_R34_NW BOM_R50_NE BOM_R50_SE BOM_R50_SW BOM_R50_NW BOM_R64_NE BOM_R64_SE BOM_R64_SW BOM_R64_NW BOM_ROCI BOM_POCI BOM_EYE BOM_POS_METHOD BOM_PRES_METHOD NADI_LAT NADI_LON NADI_CAT NADI_WIND NADI_PRES WELLINGTON_LAT WELLINGTON_LON WELLINGTON_WIND WELLINGTON_PRES DS824_LAT DS824_LON DS824_STAGE DS824_WIND DS824_PRES TD9636_LAT TD9636_LON TD9636_STAGE TD9636_WIND TD9636_PRES TD9635_LAT TD9635_LON TD9635_WIND TD9635_PRES TD9635_ROCI NEUMANN_LAT NEUMANN_LON NEUMANN_CLASS NEUMANN_WIND NEUMANN_PRES MLC_LAT MLC_LON MLC_CLASS MLC_WIND MLC_PRES USA_GUST BOM_GUST BOM_GUST_PER REUNION_GUST REUNION_GUST_PER USA_SEAHGT USA_SEARAD_NE USA_SEARAD_SE USA_SEARAD_SW USA_SEARAD_NW STORM_SPEED STORM_DIR
1983249N15260 1983 55 EP MM LORENA 1983-09-06 06:00:00 TS 15.4000 -100.000 30 hurdat_epa main 148 148 O_________O___ hurdat_epa EP121983 15.4000 -100.000 TD 30 -1 15.4000 -100.000 1 30 3 249
1983249N15260 1983 55 EP MM LORENA 1983-09-06 09:00:00 TS 15.3402 -100.160 main 165 165 P_________P___ EP121983 15.3375 -100.163 TD 30 -1 15.3483 -100.153 1 30 3 251
1983249N15260 1983 55 EP MM LORENA 1983-09-06 12:00:00 TS 15.3000 -100.300 30 hurdat_epa main 169 169 O_________O___ hurdat_epa EP121983 15.3000 -100.300 TD 30 -1 15.3000 -100.300 1 30 2 258
1983249N15260 1983 55 EP MM LORENA 1983-09-06 15:00:00 TS 15.2896 -100.409 main 173 173 P_________P___ EP121983 15.3000 -100.400 TD 32 -1 15.2583 -100.435 1 31 2 265
1983249N15260 1983 55 EP MM LORENA 1983-09-06 18:00:00 TS 15.2815 -100.515 35 hurdat_epa main 178 178 O_________P___ hurdat_epa EP121983 15.3000 -100.500 TS 35 0 15.2261 -100.560 1 32 2 258
1983249N15260 1983 55 EP MM LORENA 1983-09-06 21:00:00 TS 15.2390 -100.658 main 199 199 P_________P___ EP121983 15.2500 -100.650 TS 35 0 15.2058 -100.681 1 33 3 253
1983249N15260 1983 55 EP MM LORENA 1983-09-07 00:00:00 TS 15.2000 -100.800 35 hurdat_epa main 205 205 O_________O___ hurdat_epa EP121983 15.2000 -100.800 TS 35 0 15.2000 -100.800 2 35 2 259
1983249N15260 1983 55 EP MM LORENA 1983-09-07 03:00:00 TS 15.1902 -100.908 main 211 211 P_________P___ EP121983 15.1850 -100.900 TS 40 0 15.2058 -100.931 2 40 2 272
1983249N15260 1983 55 EP MM LORENA 1983-09-07 06:00:00 TS 15.2065 -101.015 45 hurdat_epa main 217 217 O_________P___ hurdat_epa EP121983 15.2000 -101.000 TS 45 0 15.2261 -101.060 2 45 2 283
1983249N15260 1983 55 EP MM LORENA 1983-09-07 09:00:00 TS 15.2465 -101.159 main 225 214 P_________P___ EP121983 15.2425 -101.150 TS 50 0 15.2584 -101.185 2 50 3 289
1983249N15260 1983 55 EP MM LORENA 1983-09-07 12:00:00 TS 15.3000 -101.300 55 hurdat_epa main 218 218 O_________O___ hurdat_epa EP121983 15.3000 -101.300 TS 55 0 15.3000 -101.300 2 55 2 295
1983249N15260 1983 55 EP MM LORENA 1983-09-07 15:00:00 TS 15.3493 -101.383 main 222 211 P_________P___ EP121983 15.3499 -101.385 TS 60 0 15.3475 -101.378 2 60 2 297
1983249N15260 1983 55 EP MM LORENA 1983-09-07 18:00:00 TS 15.4000 -101.500 65 hurdat_epa main 214 214 O_________O___ hurdat_epa EP121983 15.4000 -101.500 HU 65 1 15.4000 -101.500 3 65 3 285
1983249N15260 1983 55 EP MM LORENA 1983-09-07 21:00:00 TS 15.4281 -101.700 main 222 214 P_________P___ EP121983 15.4274 -101.698 HU 65 1 15.4303 -101.706 3 65 5 282
1983249N15260 1983 55 EP MM LORENA 1983-09-08 00:00:00 TS 15.5000 -102.000 65 hurdat_epa main 223 218 O_________O___ hurdat_epa EP121983 15.5000 -102.000 HU 65 1 15.5000 -102.000 4 65 7 289
1983249N15260 1983 55 EP MM LORENA 1983-09-08 03:00:00 TS 15.6640 -102.409 main 226 226 P_________P___ EP121983 15.6626 -102.420 HU 77 1 15.6684 -102.375 4 73 9 295
1983249N15260 1983 55 EP MM LORENA 1983-09-08 06:00:00 TS 15.9029 -102.881 90 hurdat_epa main 232 214 O_________P___ hurdat_epa EP121983 15.9000 -102.900 HU 90 2 15.9118 -102.825 4 82 10 300
1983249N15260 1983 55 EP MM LORENA 1983-09-08 09:00:00 TS 16.1885 -103.341 main 214 197 P_________P___ EP121983 16.1849 -103.350 HU 95 2 16.1991 -103.312 4 91 11 304
1983249N15260 1983 55 EP MM LORENA 1983-09-08 12:00:00 TS 16.5000 -103.800 100 hurdat_epa main 200 183 O_________O___ hurdat_epa EP121983 16.5000 -103.800 HU 100 3 16.5000 -103.800 4 100 11 305
1983249N15260 1983 55 EP MM LORENA 1983-09-08 15:00:00 TS 16.7985 -104.251 main 188 177 P_________P___ EP121983 16.8074 -104.258 HU 100 3 16.7715 -104.232 4 96 10 305
1983249N15260 1983 55 EP MM LORENA 1983-09-08 18:00:00 TS 17.0874 -104.689 100 hurdat_epa main 184 184 O_________P___ hurdat_epa EP121983 17.1000 -104.700 HU 100 3 17.0496 -104.658 4 92 10 304
1983249N15260 1983 55 EP MM LORENA 1983-09-08 21:00:00 TS 17.3500 -105.101 main 203 189 P_________P___ EP121983 17.3574 -105.108 HU 92 2 17.3278 -105.079 4 88 9 304
1983249N15260 1983 55 EP MM LORENA 1983-09-09 00:00:00 TS 17.6000 -105.500 85 hurdat_epa main 193 183 O_________O___ hurdat_epa EP121983 17.6000 -105.500 HU 85 2 17.6000 -105.500 4 85 9 303
1983249N15260 1983 55 EP MM LORENA 1983-09-09 03:00:00 TS 17.8516 -105.897 main 186 186 P_________P___ EP121983 17.8499 -105.893 HU 82 1 17.8566 -105.909 4 83 9 303
1983249N15260 1983 55 EP MM LORENA 1983-09-09 06:00:00 TS 18.1017 -106.305 80 hurdat_epa main 199 199 O_________P___ hurdat_epa EP121983 18.1000 -106.300 HU 80 1 18.1067 -106.321 4 82 9 302
1983249N15260 1983 55 EP MM LORENA 1983-09-09 09:00:00 TS 18.3564 -106.738 main 206 206 P_________P___ EP121983 18.3574 -106.735 HU 80 1 18.3534 -106.747 4 81 10 300
1983249N15260 1983 55 EP MM LORENA 1983-09-09 12:00:00 TS 18.6000 -107.200 80 hurdat_epa main 234 234 O_________O___ hurdat_epa EP121983 18.6000 -107.200 HU 80 1 18.6000 -107.200 4 80 10 297
1983249N15260 1983 55 EP MM LORENA 1983-09-09 15:00:00 TS 18.8099 -107.696 main 266 266 P_________P___ EP121983 18.7924 -107.685 HU 82 1 18.8627 -107.728 4 81 11 294
1983249N15260 1983 55 EP MM LORENA 1983-09-09 18:00:00 TS 19.0308 -108.220 85 hurdat_epa main 304 304 O_________P___ hurdat_epa EP121983 19.0000 -108.200 HU 85 2 19.1233 -108.279 4 82 11 296
1983249N15260 1983 55 EP MM LORENA 1983-09-09 21:00:00 TS 19.3181 -108.783 main 346 342 P_________P___ EP121983 19.3001 -108.772 HU 85 2 19.3721 -108.816 4 83 12 299
1983249N15260 1983 55 EP MM LORENA 1983-09-10 00:00:00 TS 19.6000 -109.300 85 hurdat_epa main 372 346 O_________O___ hurdat_epa EP121983 19.6000 -109.300 HU 85 2 19.6000 -109.300 4 85 10 300
1983249N15260 1983 55 EP MM LORENA 1983-09-10 03:00:00 TS 19.8166 -109.684 main 346 324 P_________P___ EP121983 19.8223 -109.688 HU 82 1 19.7996 -109.671 4 85 8 301
1983249N15260 1983 55 EP MM LORENA 1983-09-10 06:00:00 TS 19.9947 -109.997 80 hurdat_epa main 324 313 O_________P___ hurdat_epa EP121983 20.0000 -110.000 HU 80 1 19.9787 -109.989 4 85 7 300
1983249N15260 1983 55 EP MM LORENA 1983-09-10 09:00:00 TS 20.1482 -110.286 main 314 295 P_________P___ EP121983 20.1498 -110.285 HU 82 1 20.1435 -110.287 4 85 6 298
1983249N15260 1983 55 EP MM LORENA 1983-09-10 12:00:00 TS 20.3000 -110.600 85 hurdat_epa main 297 283 O_________O___ hurdat_epa EP121983 20.3000 -110.600 HU 85 2 20.3000 -110.600 4 85 8 297
1983249N15260 1983 55 EP MM LORENA 1983-09-10 15:00:00 TS 20.4960 -111.026 main 287 285 P_________P___ EP121983 20.5076 -111.042 HU 87 2 20.4612 -110.979 4 86 9 295
1983249N15260 1983 55 EP MM LORENA 1983-09-10 18:00:00 TS 20.6787 -111.469 90 hurdat_epa main 290 290 O_________P___ hurdat_epa EP121983 20.7000 -111.500 HU 90 2 20.6149 -111.378 4 87 8 292
1983249N15260 1983 55 EP MM LORENA 1983-09-10 21:00:00 TS 20.8014 -111.840 main 299 299 P_________P___ EP121983 20.8148 -111.858 HU 90 2 20.7612 -111.788 4 88 7 288
1983249N15260 1983 55 EP MM LORENA 1983-09-11 00:00:00 TS 20.9000 -112.200 90 hurdat_epa main 318 318 O_________O___ hurdat_epa EP121983 20.9000 -112.200 HU 90 2 20.9000 -112.200 4 90 7 286
1983249N15260 1983 55 EP MM LORENA 1983-09-11 03:00:00 TS 21.0002 -112.592 main 342 342 P_________P___ EP121983 20.9925 -112.593 HU 90 2 21.0236 -112.588 4 90 8 286
1983249N15260 1983 55 EP MM LORENA 1983-09-11 06:00:00 TS 21.1104 -112.995 90 hurdat_epa main 368 368 O_________P___ hurdat_epa EP121983 21.1000 -113.000 HU 90 2 21.1418 -112.978 4 90 8 288
1983249N15260 1983 55 EP MM LORENA 1983-09-11 09:00:00 TS 21.2478 -113.389 main 398 391 P_________P___ EP121983 21.2424 -113.393 HU 90 2 21.2641 -113.379 4 90 8 291
1983249N15260 1983 55 EP MM LORENA 1983-09-11 12:00:00 TS 21.4000 -113.800 90 hurdat_epa main 402 402 O_________O___ hurdat_epa EP121983 21.4000 -113.800 HU 90 2 21.4000 -113.800 4 90 8 291
1983249N15260 1983 55 EP MM LORENA 1983-09-11 15:00:00 TS 21.5489 -114.237 main 415 412 P_________P___ EP121983 21.5424 -114.235 HU 87 2 21.5684 -114.241 4 86 9 290
1983249N15260 1983 55 EP MM LORENA 1983-09-11 18:00:00 TS 21.7124 -114.701 85 hurdat_epa main 427 425 O_________P___ hurdat_epa EP121983 21.7000 -114.700 HU 85 2 21.7494 -114.705 4 82 10 292
1983249N15260 1983 55 EP MM LORENA 1983-09-11 21:00:00 TS 21.9019 -115.187 main 445 444 P_________P___ EP121983 21.8923 -115.185 HU 80 1 21.9307 -115.191 4 78 10 293
1983249N15260 1983 55 EP MM LORENA 1983-09-12 00:00:00 TS 22.1000 -115.700 75 hurdat_epa main 467 467 O_________O___ hurdat_epa EP121983 22.1000 -115.700 HU 75 1 22.1000 -115.700 4 75 11 292
1983249N15260 1983 55 EP MM LORENA 1983-09-12 03:00:00 TS 22.3016 -116.240 main 494 494 P_________P___ EP121983 22.3224 -116.242 HU 70 1 22.2393 -116.233 4 72 11 290
1983249N15260 1983 55 EP MM LORENA 1983-09-12 06:00:00 TS 22.4662 -116.796 65 hurdat_epa main 534 534 O_________P___ hurdat_epa EP121983 22.5000 -116.800 HU 65 1 22.3648 -116.786 4 70 11 283
1983249N15260 1983 55 EP MM LORENA 1983-09-12 09:00:00 TS 22.5388 -117.355 main 588 588 P_________P___ EP121983 22.5574 -117.358 HU 65 1 22.4830 -117.345 4 67 10 277
1983249N15260 1983 55 EP MM LORENA 1983-09-12 12:00:00 TS 22.6000 -117.900 65 hurdat_epa main 623 623 O_________O___ hurdat_epa EP121983 22.6000 -117.900 HU 65 1 22.6000 -117.900 4 65 10 281
1983249N15260 1983 55 EP MM LORENA 1983-09-12 15:00:00 TS 22.7337 -118.408 main 644 641 P_________P___ EP121983 22.7422 -118.400 HU 60 0 22.7081 -118.433 4 61 10 287
1983249N15260 1983 55 EP MM LORENA 1983-09-12 18:00:00 TS 22.8798 -118.915 55 hurdat_epa main 660 660 O_________P___ hurdat_epa EP121983 22.9000 -118.900 TS 55 0 22.8192 -118.959 4 57 10 284
1983249N15260 1983 55 EP MM LORENA 1983-09-12 21:00:00 TS 22.9807 -119.452 main 692 692 P_________P___ EP121983 22.9924 -119.443 TS 52 0 22.9456 -119.480 4 53 10 282
1983249N15260 1983 55 EP MM LORENA 1983-09-13 00:00:00 TS 23.1000 -120.000 50 hurdat_epa main 718 718 O_________O___ hurdat_epa EP121983 23.1000 -120.000 TS 50 0 23.1000 -120.000 2 50 11 287
1983249N15260 1983 55 EP MM LORENA 1983-09-13 03:00:00 TS 23.2820 -120.551 main 746 746 P_________P___ EP121983 23.2774 -120.558 TS 45 0 23.2959 -120.533 2 46 11 292
1983249N15260 1983 55 EP MM LORENA 1983-09-13 06:00:00 TS 23.5049 -121.091 40 hurdat_epa main 770 770 O_________P___ hurdat_epa EP121983 23.5000 -121.100 TS 40 0 23.5196 -121.065 2 42 11 296
1983249N15260 1983 55 EP MM LORENA 1983-09-13 09:00:00 TS 23.7463 -121.603 main 797 790 P_________P___ EP121983 23.7423 -121.608 TS 37 0 23.7585 -121.589 2 38 10 298
1983249N15260 1983 55 EP MM LORENA 1983-09-13 12:00:00 TS 24.0000 -122.100 35 hurdat_epa main 821 821 O_________O___ hurdat_epa EP121983 24.0000 -122.100 TS 35 0 24.0000 -122.100 2 35 10 299
1983249N15260 1983 55 EP MM LORENA 1983-09-13 15:00:00 TS 24.2542 -122.604 main 848 848 P_________P___ EP121983 24.2574 -122.608 TS 32 -1 24.2447 -122.593 2 33 10 299
1983249N15260 1983 55 EP MM LORENA 1983-09-13 18:00:00 TS 24.4967 -123.093 30 hurdat_epa main 883 883 O_________P___ hurdat_epa EP121983 24.5000 -123.100 TD 30 -1 24.4867 -123.072 2 32 10 298
1983249N15260 1983 55 EP MM LORENA 1983-09-13 21:00:00 TS 24.7193 -123.553 main 920 915 P_________P___ EP121983 24.7223 -123.558 TD 30 -1 24.7104 -123.540 2 31 9 296
1983249N15260 1983 55 EP MM LORENA 1983-09-14 00:00:00 TS 24.9000 -124.000 30 hurdat_epa main 949 949 O_________O___ hurdat_epa EP121983 24.9000 -124.000 TD 30 -1 24.9000 -124.000 1 30 9 290
1983249N15260 1983 55 EP MM LORENA 1983-09-14 03:00:00 TS 25.0222 -124.451 main 992 992 P_________P___ EP121983 25.0149 -124.450 TD 27 -1 25.0444 -124.455 1 28 8 285
1983249N15260 1983 55 EP MM LORENA 1983-09-14 06:00:00 TS 25.1128 -124.901 25 hurdat_epa main 1026 1026 O_________P___ hurdat_epa EP121983 25.1000 -124.900 TD 25 -1 25.1511 -124.905 1 27 8 283
1983249N15260 1983 55 EP MM LORENA 1983-09-14 09:00:00 TS 25.2045 -125.351 main 1071 1071 P_________P___ EP121983 25.1953 -125.350 TD 25 -1 25.2323 -125.353 1 26 8 283
1983249N15260 1983 55 EP MM LORENA 1983-09-14 12:00:00 TS 25.3000 -125.800 25 hurdat_epa main 1106 O_________O___ hurdat_epa EP121983 25.3000 -125.800 TD 25 -1 25.3000 -125.800 1 25 8 283

About IBTrACS Database

This database is a web-friendly format of International Best Track Archive for Climate Stewardship (IBTrACS), a global best track data archive curated by NOAA dating back to 1842.

Updated: 2021-11-26